createdAt,value
2019-05-31T00:02:12.129Z,91.90
2019-05-31T00:04:39.365Z,91.70
2019-05-31T00:07:06.559Z,91.50
2019-05-31T00:09:37.144Z,91.90
2019-05-31T00:12:04.417Z,91.60
2019-05-31T00:14:31.620Z,91.90
2019-05-31T00:16:59.095Z,91.80
2019-05-31T00:19:26.472Z,91.70
2019-05-31T00:21:53.660Z,91.80
2019-05-31T00:24:20.824Z,91.80
2019-05-31T00:26:47.996Z,91.80
2019-05-31T00:29:15.200Z,91.90
2019-05-31T00:31:42.476Z,91.90
2019-05-31T00:34:09.670Z,91.80
2019-05-31T00:36:36.858Z,91.60
2019-05-31T00:39:05.197Z,91.80
2019-05-31T00:41:32.376Z,91.70
2019-05-31T00:43:59.567Z,91.80
2019-05-31T00:46:26.740Z,91.70
2019-05-31T00:48:53.925Z,91.50
2019-05-31T00:51:21.152Z,92.10
2019-05-31T00:53:48.325Z,92.40
2019-05-31T00:56:15.521Z,92.30
2019-05-31T00:58:42.713Z,92.20
2019-05-31T01:01:09.888Z,92.20
2019-05-31T01:03:37.073Z,91.90
2019-05-31T01:06:05.543Z,92.00
2019-05-31T01:08:32.900Z,92.00
2019-05-31T01:11:00.107Z,92.60
2019-05-31T01:13:27.316Z,92.70
2019-05-31T01:15:54.901Z,92.60
2019-05-31T01:18:22.098Z,92.70
2019-05-31T01:20:49.289Z,92.60
2019-05-31T01:23:16.988Z,92.60
2019-05-31T01:25:44.184Z,92.60
2019-05-31T01:28:11.574Z,92.80
2019-05-31T01:30:38.752Z,93.00
2019-05-31T01:33:06.044Z,92.90
2019-05-31T01:35:33.243Z,93.00
2019-05-31T01:38:00.460Z,93.30
2019-05-31T01:40:27.756Z,93.40
2019-05-31T01:42:54.948Z,93.50
2019-05-31T01:45:22.128Z,93.20
2019-05-31T01:47:49.338Z,92.70
2019-05-31T01:50:16.816Z,92.60
2019-05-31T01:52:44.068Z,92.70
2019-05-31T01:55:12.384Z,93.10
2019-05-31T01:57:39.680Z,93.50
2019-05-31T02:00:08.975Z,93.50
2019-05-31T02:02:36.252Z,93.50
2019-05-31T02:05:04.380Z,93.40
2019-05-31T02:07:32.736Z,92.90
2019-05-31T02:09:59.941Z,93.20
2019-05-31T02:12:27.146Z,92.70
2019-05-31T02:14:54.317Z,93.10
2019-05-31T02:17:21.509Z,93.40
2019-05-31T02:19:48.700Z,93.60
2019-05-31T02:22:16.914Z,93.60
2019-05-31T02:24:44.305Z,93.00
2019-05-31T02:27:11.928Z,92.70
2019-05-31T02:29:39.100Z,92.80
2019-05-31T02:32:08.501Z,92.70
2019-05-31T02:34:35.919Z,92.60
2019-05-31T02:37:03.090Z,93.30
2019-05-31T02:39:31.838Z,93.40
2019-05-31T02:41:59.280Z,92.90
2019-05-31T02:44:26.449Z,93.40
2019-05-31T02:46:53.617Z,93.70
2019-05-31T02:49:20.804Z,93.20
2019-05-31T02:51:48.176Z,93.10
2019-05-31T02:54:16.966Z,93.10
2019-05-31T02:56:45.432Z,93.00
2019-05-31T02:59:16.849Z,93.00
2019-05-31T03:01:46.163Z,93.10
2019-05-31T03:04:13.684Z,93.20
2019-05-31T03:06:43.475Z,93.10
2019-05-31T03:09:11.948Z,93.10
2019-05-31T03:11:39.332Z,93.30
2019-05-31T03:14:06.514Z,93.10
2019-05-31T03:16:33.698Z,93.10
2019-05-31T03:19:01.584Z,93.20
2019-05-31T03:21:28.865Z,93.20
2019-05-31T03:23:56.057Z,93.20
2019-05-31T03:26:23.248Z,93.30
2019-05-31T03:28:50.802Z,93.20
2019-05-31T03:31:25.964Z,93.10
2019-05-31T03:33:47.159Z,93.10
2019-05-31T03:36:16.958Z,93.20
2019-05-31T03:38:43.557Z,93.10
2019-05-31T03:41:10.781Z,93.10
2019-05-31T03:43:37.958Z,93.00
2019-05-31T03:46:22.946Z,93.10
2019-05-31T03:48:34.255Z,93.10
2019-05-31T03:51:01.436Z,93.30
2019-05-31T03:53:28.708Z,93.10
2019-05-31T03:55:55.942Z,92.90
2019-05-31T03:58:24.782Z,93.10
2019-05-31T04:00:54.135Z,93.30
2019-05-31T04:03:23.221Z,93.30
2019-05-31T04:05:50.787Z,93.20
2019-05-31T04:08:19.978Z,93.20
2019-05-31T04:10:47.261Z,93.30
2019-05-31T04:13:15.562Z,93.50
2019-05-31T04:15:43.976Z,93.50
2019-05-31T04:18:11.398Z,93.60
2019-05-31T04:20:38.567Z,93.80
2019-05-31T04:23:05.753Z,93.70
2019-05-31T04:25:32.974Z,93.90
2019-05-31T04:28:00.188Z,93.90
2019-05-31T04:30:27.384Z,93.90
2019-05-31T04:32:54.586Z,94.00
2019-05-31T04:35:23.300Z,94.00
2019-05-31T04:37:50.864Z,94.10
2019-05-31T04:40:18.845Z,94.10
2019-05-31T04:42:47.260Z,94.30
2019-05-31T04:45:16.005Z,94.30
2019-05-31T04:47:43.460Z,94.40
2019-05-31T04:50:10.633Z,94.30
2019-05-31T04:52:37.828Z,94.50
2019-05-31T04:55:05.045Z,94.40
2019-05-31T04:57:32.150Z,94.30
2019-05-31T04:59:59.354Z,94.50
2019-05-31T05:02:28.142Z,94.30
2019-05-31T05:04:55.820Z,94.50
2019-05-31T05:07:23.381Z,94.50
2019-05-31T05:09:52.008Z,94.50
2019-05-31T05:12:20.610Z,94.40
2019-05-31T05:14:47.973Z,94.50
2019-05-31T05:17:28.698Z,94.60
2019-05-31T05:19:44.262Z,94.30
2019-05-31T05:22:11.453Z,94.40
2019-05-31T05:24:38.640Z,94.40
2019-05-31T05:27:05.837Z,94.30
2019-05-31T05:29:33.048Z,93.50
2019-05-31T05:32:00.242Z,93.70
2019-05-31T05:34:28.334Z,93.60
2019-05-31T05:36:55.692Z,94.00
2019-05-31T05:39:22.881Z,93.70
2019-05-31T05:41:50.054Z,93.60
2019-05-31T05:44:17.220Z,93.80
2019-05-31T05:46:44.419Z,93.10
2019-05-31T05:49:11.588Z,92.60
2019-05-31T05:51:38.864Z,91.90
2019-05-31T05:54:06.048Z,91.40
2019-05-31T05:56:34.454Z,90.30
2019-05-31T05:59:01.895Z,89.80
2019-05-31T06:01:29.496Z,88.60
2019-05-31T06:03:56.759Z,88.40
2019-05-31T06:06:24.127Z,88.60
2019-05-31T06:08:51.429Z,87.30
2019-05-31T06:11:18.597Z,87.70
2019-05-31T06:13:46.641Z,86.70
2019-05-31T06:16:13.815Z,87.80
2019-05-31T06:18:40.992Z,87.80
2019-05-31T06:21:08.173Z,87.60
2019-05-31T06:23:35.354Z,88.10
2019-05-31T06:26:02.632Z,87.30
2019-05-31T06:28:30.736Z,88.70
2019-05-31T06:30:58.085Z,86.90
2019-05-31T06:33:25.265Z,87.10
2019-05-31T06:35:52.448Z,87.40
2019-05-31T06:38:19.632Z,87.20
2019-05-31T06:40:46.817Z,86.10
2019-05-31T06:43:13.996Z,85.80
2019-05-31T06:45:41.200Z,84.70
2019-05-31T06:48:18.924Z,83.70
2019-05-31T06:50:38.869Z,86.60
2019-05-31T06:53:06.514Z,84.60
2019-05-31T06:55:33.752Z,85.80
2019-05-31T06:58:00.934Z,83.10
2019-05-31T07:00:29.750Z,83.80
2019-05-31T07:02:57.212Z,83.30
2019-05-31T07:05:24.405Z,83.40
2019-05-31T07:07:51.600Z,83.50
2019-05-31T07:10:19.076Z,83.00
2019-05-31T07:12:46.264Z,82.30
2019-05-31T07:15:13.566Z,81.10
2019-05-31T07:17:54.275Z,82.20
2019-05-31T07:20:09.864Z,83.90
2019-05-31T07:22:37.151Z,83.60
2019-05-31T07:25:04.664Z,82.50
2019-05-31T07:27:32.952Z,84.80
2019-05-31T07:30:00.243Z,82.40
2019-05-31T07:32:27.437Z,83.40
2019-05-31T07:34:54.642Z,81.30
2019-05-31T07:37:31.293Z,79.20
2019-05-31T07:39:50.997Z,76.80
2019-05-31T07:42:18.216Z,78.70
2019-05-31T07:44:45.497Z,80.20
2019-05-31T07:47:12.689Z,77.70
2019-05-31T07:49:40.157Z,76.40
2019-05-31T07:52:21.101Z,79.50
2019-05-31T07:54:36.999Z,76.50
2019-05-31T07:57:04.346Z,77.70
2019-05-31T07:59:31.671Z,79.60
2019-05-31T08:01:59.030Z,79.50
2019-05-31T08:04:26.834Z,79.20
2019-05-31T08:06:54.128Z,76.90
2019-05-31T08:09:21.292Z,74.60
2019-05-31T08:11:48.471Z,73.80
2019-05-31T08:14:15.557Z,75.00
2019-05-31T08:16:57.594Z,73.80
2019-05-31T08:19:16.091Z,74.00
2019-05-31T08:21:40.989Z,76.00
2019-05-31T08:24:19.555Z,73.00
2019-05-31T08:26:40.681Z,75.30
2019-05-31T08:29:06.441Z,72.60
2019-05-31T08:31:34.998Z,73.70
2019-05-31T08:34:02.365Z,71.20
2019-05-31T08:36:30.401Z,72.30
2019-05-31T08:38:57.780Z,72.90
2019-05-31T08:41:24.964Z,72.10
2019-05-31T08:43:52.171Z,72.30
2019-05-31T08:46:19.350Z,74.60
2019-05-31T08:48:46.529Z,71.30
2019-05-31T08:51:13.704Z,68.90
2019-05-31T08:53:40.876Z,71.50
2019-05-31T08:56:08.062Z,72.70
2019-05-31T08:58:36.001Z,70.50
2019-05-31T09:01:03.454Z,72.60
2019-05-31T09:03:36.385Z,72.90
2019-05-31T09:05:59.734Z,73.70
2019-05-31T09:08:28.278Z,71.00
2019-05-31T09:10:55.968Z,71.30
2019-05-31T09:13:23.198Z,70.10
2019-05-31T09:15:50.377Z,69.60
2019-05-31T09:18:17.731Z,69.90
2019-05-31T09:20:45.194Z,69.80
2019-05-31T09:23:12.369Z,74.20
2019-05-31T09:25:39.558Z,72.20
2019-05-31T09:28:06.728Z,71.20
2019-05-31T09:30:34.422Z,72.80
2019-05-31T09:33:01.772Z,72.00
2019-05-31T09:35:29.016Z,67.00
2019-05-31T09:37:56.180Z,69.00
2019-05-31T09:40:23.348Z,69.10
2019-05-31T09:42:54.499Z,69.90
2019-05-31T09:45:19.761Z,69.20
2019-05-31T09:47:46.940Z,66.40
2019-05-31T09:50:15.005Z,66.30
2019-05-31T09:52:44.025Z,69.20
2019-05-31T09:55:12.925Z,65.80
2019-05-31T09:57:45.008Z,64.00
2019-05-31T10:00:11.898Z,69.00
2019-05-31T10:02:40.343Z,68.00
2019-05-31T10:05:08.148Z,68.10
2019-05-31T10:07:36.358Z,68.30
2019-05-31T10:10:04.413Z,69.90
2019-05-31T10:12:33.132Z,71.10
2019-05-31T10:15:00.732Z,73.00
2019-05-31T10:17:29.943Z,70.20
2019-05-31T10:19:57.017Z,69.60
2019-05-31T10:22:24.193Z,72.50
2019-05-31T10:24:51.384Z,74.50
2019-05-31T10:27:18.921Z,71.30
2019-05-31T10:29:46.113Z,70.70
2019-05-31T10:32:21.303Z,72.50
2019-05-31T10:34:42.413Z,71.60
2019-05-31T10:37:09.681Z,74.60
2019-05-31T10:39:39.295Z,70.80
2019-05-31T10:42:18.971Z,70.50
2019-05-31T10:44:36.256Z,72.80
2019-05-31T10:47:03.661Z,72.00
2019-05-31T10:49:30.848Z,73.30
2019-05-31T10:51:58.033Z,72.40
2019-05-31T10:54:25.217Z,71.70
2019-05-31T10:56:52.432Z,70.50
2019-05-31T10:59:19.629Z,69.80
2019-05-31T11:01:47.201Z,70.00
2019-05-31T11:04:14.601Z,66.30
2019-05-31T11:06:42.905Z,69.60
2019-05-31T11:09:10.490Z,68.30
2019-05-31T11:11:40.402Z,72.90
2019-05-31T11:14:06.857Z,71.30
2019-05-31T11:16:35.223Z,70.90
2019-05-31T11:19:02.618Z,71.30
2019-05-31T11:21:29.820Z,70.10
2019-05-31T11:23:57.016Z,68.60
2019-05-31T11:26:24.209Z,70.10
2019-05-31T11:28:51.384Z,70.10
2019-05-31T11:31:18.592Z,72.80
2019-05-31T11:33:50.823Z,70.00
2019-05-31T11:36:14.901Z,70.40
2019-05-31T11:38:42.782Z,68.60
2019-05-31T11:41:10.212Z,71.40
2019-05-31T11:43:38.340Z,73.40
2019-05-31T11:46:05.697Z,72.60
2019-05-31T11:48:32.905Z,72.70
2019-05-31T11:51:24.418Z,67.90
2019-05-31T11:53:31.234Z,70.30
2019-05-31T11:55:58.776Z,68.30
2019-05-31T11:58:25.959Z,71.00
2019-05-31T12:00:53.132Z,69.50
2019-05-31T12:03:20.329Z,72.30
2019-05-31T12:05:47.892Z,70.50
2019-05-31T12:08:15.261Z,71.10
2019-05-31T12:10:42.830Z,70.10
2019-05-31T12:13:11.769Z,70.50
2019-05-31T12:15:40.279Z,71.60
2019-05-31T12:18:07.898Z,70.10
2019-05-31T12:20:35.068Z,69.70
2019-05-31T12:23:02.240Z,71.60
2019-05-31T12:25:29.420Z,70.10
2019-05-31T12:27:58.832Z,68.40
2019-05-31T12:30:25.780Z,72.20
2019-05-31T12:32:53.401Z,69.10
2019-05-31T12:35:20.731Z,68.50
2019-05-31T12:37:49.243Z,73.20
2019-05-31T12:40:17.147Z,71.10
2019-05-31T12:42:46.574Z,71.20
2019-05-31T12:45:14.942Z,73.00
2019-05-31T12:47:46.349Z,72.60
2019-05-31T12:50:11.961Z,72.30
2019-05-31T12:52:39.369Z,73.30
2019-05-31T12:55:07.098Z,72.20
2019-05-31T12:57:34.328Z,73.20
2019-05-31T13:00:01.529Z,72.70
2019-05-31T13:02:28.708Z,72.40
2019-05-31T13:04:55.905Z,73.40
2019-05-31T13:07:23.080Z,69.80
2019-05-31T13:09:50.294Z,70.80
2019-05-31T13:12:17.548Z,71.00
2019-05-31T13:14:45.894Z,70.50
2019-05-31T13:17:13.896Z,68.20
2019-05-31T13:19:41.085Z,69.50
2019-05-31T13:22:21.980Z,70.70
2019-05-31T13:24:37.397Z,69.30
2019-05-31T13:27:04.598Z,67.90
2019-05-31T13:29:31.806Z,69.50
2019-05-31T13:31:59.003Z,72.20
2019-05-31T13:34:27.273Z,72.50
2019-05-31T13:36:55.349Z,74.80
2019-05-31T13:39:22.708Z,74.00
2019-05-31T13:41:50.003Z,73.50
2019-05-31T13:44:17.375Z,71.10
2019-05-31T13:46:46.457Z,71.80
2019-05-31T13:49:13.688Z,71.00
2019-05-31T13:51:41.049Z,72.50
2019-05-31T13:54:08.282Z,72.70
2019-05-31T13:56:35.565Z,73.40
2019-05-31T13:59:02.881Z,74.50
2019-05-31T14:01:30.077Z,74.90
2019-05-31T14:03:58.439Z,71.90
2019-05-31T14:06:25.863Z,71.30
2019-05-31T14:08:53.847Z,72.70
2019-05-31T14:11:21.187Z,72.70
2019-05-31T14:13:48.386Z,71.70
2019-05-31T14:16:15.588Z,75.20
2019-05-31T14:18:42.759Z,75.90
2019-05-31T14:21:09.936Z,73.40
2019-05-31T14:23:37.125Z,74.10
2019-05-31T14:26:04.482Z,73.90
2019-05-31T14:28:31.765Z,74.30
2019-05-31T14:30:59.106Z,75.00
2019-05-31T14:33:26.274Z,74.00
2019-05-31T14:35:54.143Z,75.00
2019-05-31T14:38:21.448Z,76.50
2019-05-31T14:40:48.643Z,73.90
2019-05-31T14:43:15.939Z,75.50
2019-05-31T14:45:43.146Z,74.50
2019-05-31T14:48:10.401Z,76.00
2019-05-31T14:50:37.588Z,76.70
2019-05-31T14:53:19.416Z,78.60
2019-05-31T14:55:34.031Z,77.30
2019-05-31T14:58:02.124Z,76.90
2019-05-31T15:00:35.028Z,77.20
2019-05-31T15:03:02.206Z,78.60
2019-05-31T15:05:29.397Z,79.40
2019-05-31T15:08:00.217Z,79.50
2019-05-31T15:10:28.181Z,79.60
2019-05-31T15:13:00.353Z,78.70
2019-05-31T15:15:28.072Z,79.60
2019-05-31T15:17:56.290Z,78.80
2019-05-31T15:20:23.640Z,79.00
2019-05-31T15:22:50.823Z,78.60
2019-05-31T15:25:17.993Z,78.80
2019-05-31T15:27:45.061Z,77.90
2019-05-31T15:30:45.057Z,76.70
2019-05-31T15:33:22.475Z,76.80
2019-05-31T15:36:21.084Z,77.00
2019-05-31T15:38:51.717Z,78.00
2019-05-31T15:41:22.357Z,79.10
2019-05-31T15:43:49.807Z,79.40
2019-05-31T15:46:16.999Z,78.20
2019-05-31T15:48:44.355Z,78.30
2019-05-31T15:51:11.620Z,79.10
2019-05-31T15:53:50.418Z,78.90
2019-05-31T15:56:07.947Z,78.40
2019-05-31T15:58:35.376Z,78.30
2019-05-31T16:01:06.414Z,79.20
2019-05-31T16:03:35.890Z,79.60
2019-05-31T16:06:00.829Z,80.50
2019-05-31T16:08:28.020Z,80.80
2019-05-31T16:10:56.401Z,80.10
2019-05-31T16:13:23.789Z,79.30
2019-05-31T16:15:50.972Z,78.50
2019-05-31T16:18:18.178Z,78.20
2019-05-31T16:20:45.355Z,77.80
2019-05-31T16:23:13.547Z,78.80
2019-05-31T16:25:40.832Z,78.80
2019-05-31T16:28:08.945Z,77.70
2019-05-31T16:30:36.251Z,78.00
2019-05-31T16:33:04.333Z,78.60
2019-05-31T16:35:31.745Z,78.60
2019-05-31T16:38:00.077Z,79.10
2019-05-31T16:40:35.271Z,81.20
2019-05-31T16:43:03.649Z,85.30
2019-05-31T16:45:31.084Z,87.50
2019-05-31T16:47:58.289Z,88.30
2019-05-31T16:50:30.601Z,90.30
2019-05-31T16:52:57.788Z,90.60
2019-05-31T16:55:24.983Z,90.60
2019-05-31T16:57:52.218Z,91.30
2019-05-31T17:00:19.401Z,91.80
2019-05-31T17:02:46.584Z,91.30
2019-05-31T17:05:13.765Z,91.60
2019-05-31T17:07:40.936Z,92.40
2019-05-31T17:10:09.264Z,93.00
2019-05-31T17:12:37.424Z,92.80
2019-05-31T17:15:05.493Z,93.20
2019-05-31T17:17:32.760Z,93.30
2019-05-31T17:19:59.951Z,93.90
2019-05-31T17:22:27.132Z,93.70
2019-05-31T17:24:54.320Z,93.90
2019-05-31T17:27:21.540Z,94.20
2019-05-31T17:29:48.748Z,94.40
2019-05-31T17:32:15.949Z,94.50
2019-05-31T17:34:43.470Z,94.70
2019-05-31T17:37:11.437Z,95.10
2019-05-31T17:39:38.808Z,94.80
2019-05-31T17:42:06.000Z,95.00
2019-05-31T17:44:33.256Z,95.60
2019-05-31T17:47:00.469Z,95.70
2019-05-31T17:49:27.740Z,96.00
2019-05-31T17:51:54.939Z,96.00
2019-05-31T17:54:22.117Z,95.90
2019-05-31T17:56:49.350Z,96.30
2019-05-31T17:59:16.648Z,96.20
2019-05-31T18:01:43.861Z,96.10
2019-05-31T18:04:11.478Z,95.90
2019-05-31T18:06:38.733Z,95.90
2019-05-31T18:09:08.009Z,95.70
2019-05-31T18:11:35.281Z,95.80
2019-05-31T18:14:02.677Z,95.10
2019-05-31T18:16:29.900Z,95.10
2019-05-31T18:18:57.125Z,95.20
2019-05-31T18:21:24.881Z,95.40
2019-05-31T18:23:52.075Z,95.10
2019-05-31T18:26:19.292Z,95.20
2019-05-31T18:28:46.491Z,95.40
2019-05-31T18:31:12.695Z,95.40
2019-05-31T18:33:38.900Z,95.40
2019-05-31T18:36:06.074Z,95.40
2019-05-31T18:38:33.270Z,95.80
2019-05-31T18:41:00.453Z,95.70
2019-05-31T18:43:27.651Z,95.50
2019-05-31T18:45:55.014Z,95.50
2019-05-31T18:48:22.332Z,95.40
2019-05-31T18:50:49.676Z,95.20
2019-05-31T18:53:16.873Z,95.20
2019-05-31T18:55:44.288Z,95.40
2019-05-31T18:58:13.467Z,95.30
2019-05-31T19:00:44.744Z,95.60
2019-05-31T19:03:13.159Z,95.40
2019-05-31T19:05:40.456Z,95.40
2019-05-31T19:08:07.966Z,95.20
2019-05-31T19:10:35.567Z,95.00
2019-05-31T19:13:02.947Z,95.00
2019-05-31T19:15:30.358Z,95.00
2019-05-31T19:17:57.645Z,94.80
2019-05-31T19:20:24.838Z,94.90
2019-05-31T19:22:51.952Z,95.00
2019-05-31T19:25:19.719Z,95.10
2019-05-31T19:27:47.052Z,95.10
2019-05-31T19:30:15.198Z,95.30
2019-05-31T19:32:43.757Z,94.90
2019-05-31T19:35:14.151Z,95.10
2019-05-31T19:37:42.770Z,95.20
2019-05-31T19:40:10.067Z,95.10
2019-05-31T19:42:37.545Z,95.00
2019-05-31T19:45:07.862Z,95.40
2019-05-31T19:47:34.026Z,95.20
2019-05-31T19:50:01.225Z,95.00
2019-05-31T19:52:28.418Z,95.30
2019-05-31T19:54:55.593Z,95.10
2019-05-31T19:57:23.754Z,95.10
2019-05-31T19:59:51.172Z,95.00
2019-05-31T20:02:19.567Z,94.90
2019-05-31T20:04:46.941Z,95.10
2019-05-31T20:07:15.704Z,95.00
2019-05-31T20:09:43.100Z,95.00
2019-05-31T20:12:10.285Z,95.00
2019-05-31T20:14:37.501Z,95.20
2019-05-31T20:17:11.288Z,95.10
2019-05-31T20:19:33.731Z,95.00
2019-05-31T20:22:00.932Z,94.70
2019-05-31T20:24:28.189Z,95.00
2019-05-31T20:26:55.260Z,95.00
2019-05-31T20:29:25.128Z,95.20
2019-05-31T20:31:51.569Z,95.10
2019-05-31T20:34:19.819Z,95.30
2019-05-31T20:36:48.489Z,95.50
2019-05-31T20:39:19.988Z,95.60
2019-05-31T20:41:44.760Z,95.60
2019-05-31T20:44:11.954Z,95.60
2019-05-31T20:46:39.158Z,95.50
2019-05-31T20:49:06.753Z,95.50
2019-05-31T20:51:33.940Z,95.60
2019-05-31T20:54:01.139Z,95.60
2019-05-31T20:56:28.389Z,95.50
2019-05-31T20:58:55.692Z,95.70
2019-05-31T21:01:22.885Z,95.60
2019-05-31T21:03:50.075Z,95.50
2019-05-31T21:06:17.264Z,95.60
2019-05-31T21:08:44.461Z,95.60
2019-05-31T21:11:11.689Z,95.50
2019-05-31T21:13:38.871Z,96.00
2019-05-31T21:16:06.099Z,95.80
2019-05-31T21:18:33.346Z,96.20
2019-05-31T21:21:00.560Z,96.30
2019-05-31T21:23:28.717Z,96.20
2019-05-31T21:25:56.020Z,96.10
2019-05-31T21:28:23.217Z,96.10
2019-05-31T21:30:50.743Z,96.00
2019-05-31T21:33:17.988Z,96.00
2019-05-31T21:35:45.293Z,96.10
2019-05-31T21:38:12.477Z,96.00
2019-05-31T21:40:40.616Z,96.00
2019-05-31T21:43:07.814Z,96.00
2019-05-31T21:45:34.976Z,96.10
2019-05-31T21:48:02.169Z,96.20
2019-05-31T21:50:29.851Z,96.00
2019-05-31T21:52:57.259Z,96.00
2019-05-31T21:55:25.179Z,95.90
2019-05-31T21:57:52.452Z,96.10
2019-05-31T22:00:22.181Z,96.00
2019-05-31T22:02:49.468Z,96.10
2019-05-31T22:05:16.655Z,96.10
2019-05-31T22:07:43.856Z,96.10
2019-05-31T22:10:11.456Z,95.90
2019-05-31T22:12:38.672Z,95.80
2019-05-31T22:15:06.792Z,96.00
2019-05-31T22:17:34.066Z,96.00
2019-05-31T22:20:01.276Z,96.20
2019-05-31T22:22:28.521Z,96.00
2019-05-31T22:24:55.789Z,95.90
2019-05-31T22:27:22.980Z,96.10
2019-05-31T22:29:50.156Z,96.10
2019-05-31T22:32:18.648Z,96.00
2019-05-31T22:34:45.834Z,96.00
2019-05-31T22:37:13.133Z,96.10
2019-05-31T22:39:40.811Z,96.10
2019-05-31T22:42:08.268Z,96.20
2019-05-31T22:44:36.857Z,96.10
2019-05-31T22:47:04.216Z,96.10
2019-05-31T22:49:32.372Z,96.20
2019-05-31T22:52:00.612Z,96.50
2019-05-31T22:54:27.818Z,96.60
2019-05-31T22:56:55.012Z,96.40
2019-05-31T22:59:34.583Z,96.30
2019-05-31T23:01:51.515Z,96.10
2019-05-31T23:04:18.834Z,96.30
2019-05-31T23:06:46.085Z,96.40
2019-05-31T23:09:13.253Z,96.30
2019-05-31T23:11:40.605Z,96.50
2019-05-31T23:14:07.925Z,96.50
2019-05-31T23:16:35.100Z,96.50
2019-05-31T23:19:02.396Z,96.80
2019-05-31T23:21:29.565Z,96.60
2019-05-31T23:23:56.746Z,96.80
2019-05-31T23:26:24.119Z,96.50
2019-05-31T23:28:51.276Z,96.80
2019-05-31T23:31:18.548Z,96.90
2019-05-31T23:33:45.728Z,96.80
2019-05-31T23:36:12.902Z,96.50
2019-05-31T23:38:41.218Z,96.40
2019-05-31T23:41:08.461Z,96.60
2019-05-31T23:43:36.278Z,96.60
2019-05-31T23:46:03.648Z,96.50
2019-05-31T23:48:30.832Z,96.10
2019-05-31T23:50:57.997Z,95.90
2019-05-31T23:53:25.173Z,95.80
2019-05-31T23:55:52.390Z,96.20
2019-05-31T23:58:19.589Z,96.60
